sensor_id;sensor_type;location;lat;lon;timestamp;P1;durP1;ratioP1;P2;durP2;ratioP2
82125;SDS011;71668;51.400;6.758;2024-01-15T00:00:16;31.00;;;21.17;;
82125;SDS011;71668;51.400;6.758;2024-01-15T00:02:43;32.40;;;20.23;;
82125;SDS011;71668;51.400;6.758;2024-01-15T00:05:10;29.90;;;21.00;;
82125;SDS011;71668;51.400;6.758;2024-01-15T00:07:36;28.83;;;20.97;;
82125;SDS011;71668;51.400;6.758;2024-01-15T00:10:03;28.07;;;20.33;;
82125;SDS011;71668;51.400;6.758;2024-01-15T00:12:30;32.07;;;20.40;;
82125;SDS011;71668;51.400;6.758;2024-01-15T00:14:57;27.07;;;19.53;;
82125;SDS011;71668;51.400;6.758;2024-01-15T00:17:24;30.50;;;19.17;;
82125;SDS011;71668;51.400;6.758;2024-01-15T00:19:51;30.47;;;19.80;;
82125;SDS011;71668;51.400;6.758;2024-01-15T00:22:18;27.50;;;18.43;;
82125;SDS011;71668;51.400;6.758;2024-01-15T00:24:45;24.37;;;17.40;;
82125;SDS011;71668;51.400;6.758;2024-01-15T00:27:12;24.20;;;18.23;;
82125;SDS011;71668;51.400;6.758;2024-01-15T00:29:39;26.53;;;18.37;;
82125;SDS011;71668;51.400;6.758;2024-01-15T00:32:06;26.47;;;19.07;;
82125;SDS011;71668;51.400;6.758;2024-01-15T00:34:33;28.30;;;19.70;;
82125;SDS011;71668;51.400;6.758;2024-01-15T00:37:00;27.33;;;19.50;;
82125;SDS011;71668;51.400;6.758;2024-01-15T00:39:27;26.60;;;19.47;;
82125;SDS011;71668;51.400;6.758;2024-01-15T00:41:54;25.07;;;19.23;;
82125;SDS011;71668;51.400;6.758;2024-01-15T00:44:21;29.23;;;19.30;;
82125;SDS011;71668;51.400;6.758;2024-01-15T00:46:48;30.20;;;20.40;;
82125;SDS011;71668;51.400;6.758;2024-01-15T00:49:15;28.07;;;19.97;;
82125;SDS011;71668;51.400;6.758;2024-01-15T00:51:42;30.17;;;20.43;;
82125;SDS011;71668;51.400;6.758;2024-01-15T00:54:09;28.13;;;19.83;;
82125;SDS011;71668;51.400;6.758;2024-01-15T00:56:36;26.70;;;19.47;;
82125;SDS011;71668;51.400;6.758;2024-01-15T00:59:03;28.97;;;19.10;;
82125;SDS011;71668;51.400;6.758;2024-01-15T01:01:30;28.20;;;19.90;;
82125;SDS011;71668;51.400;6.758;2024-01-15T01:03:57;27.53;;;19.20;;
82125;SDS011;71668;51.400;6.758;2024-01-15T01:06:24;27.40;;;19.07;;
82125;SDS011;71668;51.400;6.758;2024-01-15T01:08:51;25.47;;;18.23;;
82125;SDS011;71668;51.400;6.758;2024-01-15T01:11:18;25.63;;;18.13;;
82125;SDS011;71668;51.400;6.758;2024-01-15T01:13:45;27.07;;;20.03;;
82125;SDS011;71668;51.400;6.758;2024-01-15T01:16:12;27.87;;;20.23;;
82125;SDS011;71668;51.400;6.758;2024-01-15T01:18:39;29.93;;;19.70;;
82125;SDS011;71668;51.400;6.758;2024-01-15T01:21:06;25.17;;;18.93;;
82125;SDS011;71668;51.400;6.758;2024-01-15T01:23:33;27.67;;;20.17;;
82125;SDS011;71668;51.400;6.758;2024-01-15T01:26:00;24.20;;;19.77;;
82125;SDS011;71668;51.400;6.758;2024-01-15T01:28:27;28.20;;;20.30;;
82125;SDS011;71668;51.400;6.758;2024-01-15T01:30:54;26.87;;;19.17;;
82125;SDS011;71668;51.400;6.758;2024-01-15T01:33:21;28.20;;;20.63;;
82125;SDS011;71668;51.400;6.758;2024-01-15T01:35:48;29.03;;;19.23;;
82125;SDS011;71668;51.400;6.758;2024-01-15T01:38:15;26.27;;;19.27;;
82125;SDS011;71668;51.400;6.758;2024-01-15T01:40:42;28.53;;;19.67;;
82125;SDS011;71668;51.400;6.758;2024-01-15T01:43:09;28.27;;;19.33;;
82125;SDS011;71668;51.400;6.758;2024-01-15T01:45:36;25.67;;;18.87;;
82125;SDS011;71668;51.400;6.758;2024-01-15T01:48:04;29.33;;;19.80;;
82125;SDS011;71668;51.400;6.758;2024-01-15T01:50:31;29.60;;;19.27;;
82125;SDS011;71668;51.400;6.758;2024-01-15T01:52:59;28.60;;;19.27;;
82125;SDS011;71668;51.400;6.758;2024-01-15T01:55:27;24.77;;;17.80;;
82125;SDS011;71668;51.400;6.758;2024-01-15T01:57:57;25.27;;;17.70;;
82125;SDS011;71668;51.400;6.758;2024-01-15T02:00:24;24.10;;;17.53;;
82125;SDS011;71668;51.400;6.758;2024-01-15T02:02:51;24.43;;;17.90;;
82125;SDS011;71668;51.400;6.758;2024-01-15T02:05:18;24.47;;;16.27;;
82125;SDS011;71668;51.400;6.758;2024-01-15T02:07:46;21.97;;;16.53;;
82125;SDS011;71668;51.400;6.758;2024-01-15T02:10:13;25.43;;;16.60;;
82125;SDS011;71668;51.400;6.758;2024-01-15T02:12:41;24.47;;;16.90;;
82125;SDS011;71668;51.400;6.758;2024-01-15T02:15:09;25.33;;;15.93;;
82125;SDS011;71668;51.400;6.758;2024-01-15T02:17:55;26.10;;;17.70;;
82125;SDS011;71668;51.400;6.758;2024-01-15T02:20:24;24.83;;;16.47;;
82125;SDS011;71668;51.400;6.758;2024-01-15T02:22:52;23.53;;;16.43;;
82125;SDS011;71668;51.400;6.758;2024-01-15T02:25:19;21.90;;;16.50;;
82125;SDS011;71668;51.400;6.758;2024-01-15T02:27:46;23.50;;;16.00;;
82125;SDS011;71668;51.400;6.758;2024-01-15T02:30:14;20.80;;;14.90;;
82125;SDS011;71668;51.400;6.758;2024-01-15T02:32:43;22.20;;;14.13;;
82125;SDS011;71668;51.400;6.758;2024-01-15T02:35:10;19.60;;;14.50;;
82125;SDS011;71668;51.400;6.758;2024-01-15T02:37:36;19.70;;;13.63;;
82125;SDS011;71668;51.400;6.758;2024-01-15T02:40:03;19.07;;;13.07;;
82125;SDS011;71668;51.400;6.758;2024-01-15T02:42:30;19.77;;;14.10;;
82125;SDS011;71668;51.400;6.758;2024-01-15T02:44:57;23.33;;;13.83;;
82125;SDS011;71668;51.400;6.758;2024-01-15T02:47:24;23.17;;;12.23;;
82125;SDS011;71668;51.400;6.758;2024-01-15T02:49:51;19.43;;;13.30;;
82125;SDS011;71668;51.400;6.758;2024-01-15T02:52:18;17.80;;;12.10;;
82125;SDS011;71668;51.400;6.758;2024-01-15T02:54:45;16.50;;;12.00;;
82125;SDS011;71668;51.400;6.758;2024-01-15T02:57:12;15.53;;;10.97;;
82125;SDS011;71668;51.400;6.758;2024-01-15T02:59:38;17.87;;;10.70;;
82125;SDS011;71668;51.400;6.758;2024-01-15T03:02:05;16.33;;;10.53;;
82125;SDS011;71668;51.400;6.758;2024-01-15T03:04:32;17.10;;;9.80;;
82125;SDS011;71668;51.400;6.758;2024-01-15T03:06:59;16.03;;;9.43;;
82125;SDS011;71668;51.400;6.758;2024-01-15T03:09:26;16.07;;;10.40;;
82125;SDS011;71668;51.400;6.758;2024-01-15T03:11:52;18.00;;;11.50;;
82125;SDS011;71668;51.400;6.758;2024-01-15T03:14:19;15.60;;;10.77;;
82125;SDS011;71668;51.400;6.758;2024-01-15T03:16:46;16.43;;;10.83;;
82125;SDS011;71668;51.400;6.758;2024-01-15T03:19:13;14.40;;;10.63;;
82125;SDS011;71668;51.400;6.758;2024-01-15T03:21:40;19.03;;;11.23;;
82125;SDS011;71668;51.400;6.758;2024-01-15T03:24:07;18.60;;;12.10;;
82125;SDS011;71668;51.400;6.758;2024-01-15T03:26:34;17.43;;;11.50;;
82125;SDS011;71668;51.400;6.758;2024-01-15T03:29:00;18.13;;;11.43;;
82125;SDS011;71668;51.400;6.758;2024-01-15T03:31:27;15.50;;;12.13;;
82125;SDS011;71668;51.400;6.758;2024-01-15T03:33:55;21.10;;;13.30;;
82125;SDS011;71668;51.400;6.758;2024-01-15T03:36:22;17.30;;;12.80;;
82125;SDS011;71668;51.400;6.758;2024-01-15T03:38:49;14.93;;;12.63;;
82125;SDS011;71668;51.400;6.758;2024-01-15T03:41:15;16.50;;;14.10;;
82125;SDS011;71668;51.400;6.758;2024-01-15T03:43:42;17.90;;;13.03;;
82125;SDS011;71668;51.400;6.758;2024-01-15T03:46:09;17.07;;;13.53;;
82125;SDS011;71668;51.400;6.758;2024-01-15T03:48:36;17.40;;;13.33;;
82125;SDS011;71668;51.400;6.758;2024-01-15T03:51:03;16.23;;;13.60;;
82125;SDS011;71668;51.400;6.758;2024-01-15T03:53:30;19.33;;;14.23;;
82125;SDS011;71668;51.400;6.758;2024-01-15T03:55:57;19.37;;;13.93;;
82125;SDS011;71668;51.400;6.758;2024-01-15T03:58:24;18.60;;;13.97;;
82125;SDS011;71668;51.400;6.758;2024-01-15T04:00:51;16.53;;;12.77;;
82125;SDS011;71668;51.400;6.758;2024-01-15T04:03:18;18.23;;;12.80;;
82125;SDS011;71668;51.400;6.758;2024-01-15T04:05:45;17.73;;;12.73;;
82125;SDS011;71668;51.400;6.758;2024-01-15T04:08:12;17.97;;;13.33;;
82125;SDS011;71668;51.400;6.758;2024-01-15T04:10:39;14.50;;;12.17;;
82125;SDS011;71668;51.400;6.758;2024-01-15T04:13:06;16.37;;;12.73;;
82125;SDS011;71668;51.400;6.758;2024-01-15T04:15:33;14.33;;;12.87;;
82125;SDS011;71668;51.400;6.758;2024-01-15T04:18:00;17.33;;;13.00;;
82125;SDS011;71668;51.400;6.758;2024-01-15T04:20:27;15.57;;;12.27;;
82125;SDS011;71668;51.400;6.758;2024-01-15T04:22:54;15.57;;;12.17;;
82125;SDS011;71668;51.400;6.758;2024-01-15T04:25:21;16.30;;;12.63;;
82125;SDS011;71668;51.400;6.758;2024-01-15T04:27:48;17.47;;;11.87;;
82125;SDS011;71668;51.400;6.758;2024-01-15T04:30:15;15.40;;;11.97;;
82125;SDS011;71668;51.400;6.758;2024-01-15T04:32:42;15.03;;;11.13;;
82125;SDS011;71668;51.400;6.758;2024-01-15T04:35:09;14.07;;;10.63;;
82125;SDS011;71668;51.400;6.758;2024-01-15T04:37:35;13.83;;;10.63;;
82125;SDS011;71668;51.400;6.758;2024-01-15T04:40:02;12.90;;;10.40;;
82125;SDS011;71668;51.400;6.758;2024-01-15T04:42:30;15.77;;;11.20;;
82125;SDS011;71668;51.400;6.758;2024-01-15T04:44:57;13.83;;;11.53;;
82125;SDS011;71668;51.400;6.758;2024-01-15T04:47:24;18.27;;;11.77;;
82125;SDS011;71668;51.400;6.758;2024-01-15T04:49:51;14.77;;;12.40;;
82125;SDS011;71668;51.400;6.758;2024-01-15T04:52:18;15.40;;;12.00;;
82125;SDS011;71668;51.400;6.758;2024-01-15T04:54:44;17.80;;;11.70;;
82125;SDS011;71668;51.400;6.758;2024-01-15T04:57:12;15.17;;;12.00;;
82125;SDS011;71668;51.400;6.758;2024-01-15T04:59:38;13.53;;;11.10;;
82125;SDS011;71668;51.400;6.758;2024-01-15T05:02:06;15.20;;;11.13;;
82125;SDS011;71668;51.400;6.758;2024-01-15T05:04:33;15.23;;;9.77;;
82125;SDS011;71668;51.400;6.758;2024-01-15T05:07:00;15.17;;;10.60;;
82125;SDS011;71668;51.400;6.758;2024-01-15T05:09:27;13.23;;;10.20;;
82125;SDS011;71668;51.400;6.758;2024-01-15T05:11:58;13.63;;;10.07;;
82125;SDS011;71668;51.400;6.758;2024-01-15T05:14:25;13.40;;;9.87;;
82125;SDS011;71668;51.400;6.758;2024-01-15T05:16:52;14.87;;;10.37;;
82125;SDS011;71668;51.400;6.758;2024-01-15T05:19:19;16.97;;;10.60;;
82125;SDS011;71668;51.400;6.758;2024-01-15T05:21:46;13.97;;;9.83;;
82125;SDS011;71668;51.400;6.758;2024-01-15T05:24:13;18.73;;;10.13;;
82125;SDS011;71668;51.400;6.758;2024-01-15T05:26:40;11.13;;;9.37;;
82125;SDS011;71668;51.400;6.758;2024-01-15T05:29:06;12.57;;;9.33;;
82125;SDS011;71668;51.400;6.758;2024-01-15T05:31:33;13.03;;;9.73;;
82125;SDS011;71668;51.400;6.758;2024-01-15T05:34:01;11.57;;;9.50;;
82125;SDS011;71668;51.400;6.758;2024-01-15T05:36:29;14.87;;;11.10;;
82125;SDS011;71668;51.400;6.758;2024-01-15T05:38:55;14.70;;;9.87;;
82125;SDS011;71668;51.400;6.758;2024-01-15T05:41:22;12.57;;;9.73;;
82125;SDS011;71668;51.400;6.758;2024-01-15T05:43:49;12.83;;;8.97;;
82125;SDS011;71668;51.400;6.758;2024-01-15T05:46:16;13.17;;;9.53;;
82125;SDS011;71668;51.400;6.758;2024-01-15T05:48:42;15.00;;;8.77;;
82125;SDS011;71668;51.400;6.758;2024-01-15T05:51:10;12.47;;;8.70;;
82125;SDS011;71668;51.400;6.758;2024-01-15T05:53:38;12.13;;;8.60;;
82125;SDS011;71668;51.400;6.758;2024-01-15T05:56:07;9.97;;;8.20;;
82125;SDS011;71668;51.400;6.758;2024-01-15T05:58:36;12.17;;;8.63;;
82125;SDS011;71668;51.400;6.758;2024-01-15T06:01:03;13.77;;;7.77;;
82125;SDS011;71668;51.400;6.758;2024-01-15T06:03:30;15.50;;;7.87;;
82125;SDS011;71668;51.400;6.758;2024-01-15T06:05:57;11.03;;;7.40;;
82125;SDS011;71668;51.400;6.758;2024-01-15T06:08:24;17.27;;;7.87;;
82125;SDS011;71668;51.400;6.758;2024-01-15T06:10:53;12.13;;;7.30;;
82125;SDS011;71668;51.400;6.758;2024-01-15T06:13:22;11.80;;;7.03;;
82125;SDS011;71668;51.400;6.758;2024-01-15T06:15:49;11.50;;;7.47;;
82125;SDS011;71668;51.400;6.758;2024-01-15T06:18:20;13.73;;;7.60;;
82125;SDS011;71668;51.400;6.758;2024-01-15T06:20:52;12.43;;;7.43;;
82125;SDS011;71668;51.400;6.758;2024-01-15T06:23:19;9.97;;;7.80;;
82125;SDS011;71668;51.400;6.758;2024-01-15T06:25:47;13.70;;;6.87;;
82125;SDS011;71668;51.400;6.758;2024-01-15T06:28:14;10.87;;;6.50;;
82125;SDS011;71668;51.400;6.758;2024-01-15T06:30:40;10.20;;;6.10;;
82125;SDS011;71668;51.400;6.758;2024-01-15T06:33:08;9.93;;;6.10;;
82125;SDS011;71668;51.400;6.758;2024-01-15T06:35:35;8.30;;;5.80;;
82125;SDS011;71668;51.400;6.758;2024-01-15T06:38:02;7.97;;;5.03;;
82125;SDS011;71668;51.400;6.758;2024-01-15T06:40:29;6.70;;;4.67;;
82125;SDS011;71668;51.400;6.758;2024-01-15T06:42:56;6.40;;;4.13;;
82125;SDS011;71668;51.400;6.758;2024-01-15T06:45:23;5.67;;;3.67;;
82125;SDS011;71668;51.400;6.758;2024-01-15T06:47:50;7.17;;;3.90;;
82125;SDS011;71668;51.400;6.758;2024-01-15T06:50:17;7.20;;;3.97;;
82125;SDS011;71668;51.400;6.758;2024-01-15T06:52:43;5.70;;;3.73;;
82125;SDS011;71668;51.400;6.758;2024-01-15T06:55:10;7.20;;;3.57;;
82125;SDS011;71668;51.400;6.758;2024-01-15T06:57:37;8.33;;;4.23;;
82125;SDS011;71668;51.400;6.758;2024-01-15T07:00:04;5.87;;;3.57;;
82125;SDS011;71668;51.400;6.758;2024-01-15T07:02:34;5.40;;;3.37;;
82125;SDS011;71668;51.400;6.758;2024-01-15T07:05:01;7.90;;;4.00;;
82125;SDS011;71668;51.400;6.758;2024-01-15T07:07:31;6.53;;;3.63;;
82125;SDS011;71668;51.400;6.758;2024-01-15T07:09:58;5.53;;;4.13;;
82125;SDS011;71668;51.400;6.758;2024-01-15T07:12:25;5.57;;;3.50;;
82125;SDS011;71668;51.400;6.758;2024-01-15T07:14:51;6.53;;;3.50;;
82125;SDS011;71668;51.400;6.758;2024-01-15T07:17:18;8.90;;;4.33;;
82125;SDS011;71668;51.400;6.758;2024-01-15T07:19:45;6.67;;;4.10;;
82125;SDS011;71668;51.400;6.758;2024-01-15T07:22:13;7.43;;;4.60;;
82125;SDS011;71668;51.400;6.758;2024-01-15T07:24:41;7.43;;;5.33;;
82125;SDS011;71668;51.400;6.758;2024-01-15T07:27:08;8.07;;;6.47;;
82125;SDS011;71668;51.400;6.758;2024-01-15T07:29:35;10.37;;;6.77;;
82125;SDS011;71668;51.400;6.758;2024-01-15T07:32:04;10.17;;;7.77;;
82125;SDS011;71668;51.400;6.758;2024-01-15T07:34:31;9.47;;;8.40;;
82125;SDS011;71668;51.400;6.758;2024-01-15T07:36:58;11.63;;;9.17;;
82125;SDS011;71668;51.400;6.758;2024-01-15T07:39:25;12.97;;;10.37;;
82125;SDS011;71668;51.400;6.758;2024-01-15T07:41:54;13.23;;;10.57;;
82125;SDS011;71668;51.400;6.758;2024-01-15T07:44:21;14.37;;;11.60;;
82125;SDS011;71668;51.400;6.758;2024-01-15T07:46:51;12.70;;;10.73;;
82125;SDS011;71668;51.400;6.758;2024-01-15T07:49:21;14.07;;;11.10;;
82125;SDS011;71668;51.400;6.758;2024-01-15T07:51:51;15.60;;;11.60;;
82125;SDS011;71668;51.400;6.758;2024-01-15T07:54:21;12.77;;;10.90;;
82125;SDS011;71668;51.400;6.758;2024-01-15T07:56:57;12.23;;;10.50;;
82125;SDS011;71668;51.400;6.758;2024-01-15T07:59:31;11.17;;;9.80;;
82125;SDS011;71668;51.400;6.758;2024-01-15T08:01:58;15.53;;;10.13;;
82125;SDS011;71668;51.400;6.758;2024-01-15T08:04:26;11.87;;;10.60;;
82125;SDS011;71668;51.400;6.758;2024-01-15T08:06:53;12.17;;;10.63;;
82125;SDS011;71668;51.400;6.758;2024-01-15T08:09:20;12.40;;;11.10;;
82125;SDS011;71668;51.400;6.758;2024-01-15T08:11:47;55.60;;;29.47;;
82125;SDS011;71668;51.400;6.758;2024-01-15T08:14:13;68.97;;;32.87;;
82125;SDS011;71668;51.400;6.758;2024-01-15T08:16:40;43.70;;;26.60;;
82125;SDS011;71668;51.400;6.758;2024-01-15T08:19:07;35.63;;;19.17;;
82125;SDS011;71668;51.400;6.758;2024-01-15T08:21:34;35.77;;;17.47;;
82125;SDS011;71668;51.400;6.758;2024-01-15T08:24:23;27.67;;;13.23;;
82125;SDS011;71668;51.400;6.758;2024-01-15T08:26:50;24.00;;;12.93;;
82125;SDS011;71668;51.400;6.758;2024-01-15T08:29:17;18.43;;;9.70;;
82125;SDS011;71668;51.400;6.758;2024-01-15T08:31:47;8.73;;;6.47;;
82125;SDS011;71668;51.400;6.758;2024-01-15T08:34:17;7.23;;;6.50;;
82125;SDS011;71668;51.400;6.758;2024-01-15T08:36:47;7.77;;;6.97;;
82125;SDS011;71668;51.400;6.758;2024-01-15T08:39:14;8.87;;;6.70;;
82125;SDS011;71668;51.400;6.758;2024-01-15T08:41:41;7.67;;;6.20;;
82125;SDS011;71668;51.400;6.758;2024-01-15T08:44:08;9.03;;;5.90;;
82125;SDS011;71668;51.400;6.758;2024-01-15T08:46:35;7.37;;;6.47;;
82125;SDS011;71668;51.400;6.758;2024-01-15T08:49:01;7.60;;;6.10;;
82125;SDS011;71668;51.400;6.758;2024-01-15T08:51:29;6.03;;;5.43;;
82125;SDS011;71668;51.400;6.758;2024-01-15T08:53:56;6.83;;;5.50;;
82125;SDS011;71668;51.400;6.758;2024-01-15T08:56:24;5.73;;;5.07;;
82125;SDS011;71668;51.400;6.758;2024-01-15T08:58:53;6.73;;;5.67;;
82125;SDS011;71668;51.400;6.758;2024-01-15T09:01:20;5.93;;;5.43;;
82125;SDS011;71668;51.400;6.758;2024-01-15T09:03:56;5.53;;;4.93;;
82125;SDS011;71668;51.400;6.758;2024-01-15T09:06:23;6.47;;;4.80;;
82125;SDS011;71668;51.400;6.758;2024-01-15T09:08:50;5.80;;;5.30;;
82125;SDS011;71668;51.400;6.758;2024-01-15T09:11:17;5.83;;;5.33;;
82125;SDS011;71668;51.400;6.758;2024-01-15T09:13:44;5.23;;;4.73;;
82125;SDS011;71668;51.400;6.758;2024-01-15T09:16:11;8.33;;;6.70;;
82125;SDS011;71668;51.400;6.758;2024-01-15T09:18:38;6.60;;;5.00;;
82125;SDS011;71668;51.400;6.758;2024-01-15T09:21:05;4.67;;;4.27;;
82125;SDS011;71668;51.400;6.758;2024-01-15T09:23:32;4.03;;;3.63;;
82125;SDS011;71668;51.400;6.758;2024-01-15T09:25:58;4.37;;;3.97;;
82125;SDS011;71668;51.400;6.758;2024-01-15T09:28:26;4.63;;;3.70;;
82125;SDS011;71668;51.400;6.758;2024-01-15T09:30:54;3.83;;;3.53;;
82125;SDS011;71668;51.400;6.758;2024-01-15T09:33:21;4.87;;;3.53;;
82125;SDS011;71668;51.400;6.758;2024-01-15T09:35:49;3.80;;;3.47;;
82125;SDS011;71668;51.400;6.758;2024-01-15T09:38:16;3.70;;;3.40;;
82125;SDS011;71668;51.400;6.758;2024-01-15T09:40:45;3.57;;;3.27;;
82125;SDS011;71668;51.400;6.758;2024-01-15T09:43:13;3.17;;;2.87;;
82125;SDS011;71668;51.400;6.758;2024-01-15T09:45:42;3.87;;;3.20;;
82125;SDS011;71668;51.400;6.758;2024-01-15T09:48:10;3.33;;;3.03;;
82125;SDS011;71668;51.400;6.758;2024-01-15T09:50:37;3.80;;;3.00;;
82125;SDS011;71668;51.400;6.758;2024-01-15T09:53:06;3.27;;;2.97;;
82125;SDS011;71668;51.400;6.758;2024-01-15T09:55:36;5.13;;;3.30;;
82125;SDS011;71668;51.400;6.758;2024-01-15T09:58:04;4.10;;;3.53;;
82125;SDS011;71668;51.400;6.758;2024-01-15T10:00:31;3.60;;;3.30;;
82125;SDS011;71668;51.400;6.758;2024-01-15T10:03:03;4.57;;;3.73;;
82125;SDS011;71668;51.400;6.758;2024-01-15T10:05:30;5.43;;;4.10;;
82125;SDS011;71668;51.400;6.758;2024-01-15T10:07:57;4.10;;;3.73;;
82125;SDS011;71668;51.400;6.758;2024-01-15T10:10:27;6.40;;;5.80;;
82125;SDS011;71668;51.400;6.758;2024-01-15T10:12:54;4.73;;;4.33;;
82125;SDS011;71668;51.400;6.758;2024-01-15T10:15:22;4.77;;;3.70;;
82125;SDS011;71668;51.400;6.758;2024-01-15T10:17:50;3.37;;;3.07;;
82125;SDS011;71668;51.400;6.758;2024-01-15T10:20:17;3.67;;;3.37;;
82125;SDS011;71668;51.400;6.758;2024-01-15T10:22:45;3.80;;;3.27;;
82125;SDS011;71668;51.400;6.758;2024-01-15T10:25:15;3.60;;;3.30;;
82125;SDS011;71668;51.400;6.758;2024-01-15T10:27:43;3.63;;;3.33;;
82125;SDS011;71668;51.400;6.758;2024-01-15T10:30:10;3.90;;;3.50;;
82125;SDS011;71668;51.400;6.758;2024-01-15T10:32:38;3.83;;;3.53;;
82125;SDS011;71668;51.400;6.758;2024-01-15T10:35:06;4.20;;;3.80;;
82125;SDS011;71668;51.400;6.758;2024-01-15T10:37:34;5.07;;;4.07;;
82125;SDS011;71668;51.400;6.758;2024-01-15T10:40:02;6.17;;;4.87;;
82125;SDS011;71668;51.400;6.758;2024-01-15T10:42:32;6.37;;;5.37;;
82125;SDS011;71668;51.400;6.758;2024-01-15T10:45:00;4.93;;;4.20;;
82125;SDS011;71668;51.400;6.758;2024-01-15T10:47:28;5.13;;;3.93;;
82125;SDS011;71668;51.400;6.758;2024-01-15T10:49:56;4.53;;;3.73;;
82125;SDS011;71668;51.400;6.758;2024-01-15T10:52:25;4.47;;;4.07;;
82125;SDS011;71668;51.400;6.758;2024-01-15T10:54:53;4.80;;;4.20;;
82125;SDS011;71668;51.400;6.758;2024-01-15T10:57:22;5.70;;;3.80;;
82125;SDS011;71668;51.400;6.758;2024-01-15T10:59:51;4.13;;;3.73;;
82125;SDS011;71668;51.400;6.758;2024-01-15T11:07:46;4.33;;;3.97;;
82125;SDS011;71668;51.400;6.758;2024-01-15T11:11:26;4.30;;;3.83;;
82125;SDS011;71668;51.400;6.758;2024-01-15T11:22:53;4.03;;;3.37;;
82125;SDS011;71668;51.400;6.758;2024-01-15T11:29:03;6.17;;;4.37;;
82125;SDS011;71668;51.400;6.758;2024-01-15T11:32:32;6.30;;;3.57;;
82125;SDS011;71668;51.400;6.758;2024-01-15T11:35:02;6.73;;;3.60;;
82125;SDS011;71668;51.400;6.758;2024-01-15T11:43:00;4.13;;;3.03;;
82125;SDS011;71668;51.400;6.758;2024-01-15T11:45:27;4.37;;;2.93;;
82125;SDS011;71668;51.400;6.758;2024-01-15T11:50:45;6.47;;;2.90;;
82125;SDS011;71668;51.400;6.758;2024-01-15T11:55:50;6.43;;;2.90;;
82125;SDS011;71668;51.400;6.758;2024-01-15T11:58:18;7.30;;;3.07;;
82125;SDS011;71668;51.400;6.758;2024-01-15T12:00:47;6.17;;;2.70;;
82125;SDS011;71668;51.400;6.758;2024-01-15T12:03:16;4.63;;;2.50;;
82125;SDS011;71668;51.400;6.758;2024-01-15T12:05:44;7.37;;;2.40;;
82125;SDS011;71668;51.400;6.758;2024-01-15T12:08:15;6.73;;;2.40;;
82125;SDS011;71668;51.400;6.758;2024-01-15T12:10:50;5.07;;;2.20;;
82125;SDS011;71668;51.400;6.758;2024-01-15T12:13:18;4.97;;;2.50;;
82125;SDS011;71668;51.400;6.758;2024-01-15T12:15:47;6.30;;;2.10;;
82125;SDS011;71668;51.400;6.758;2024-01-15T12:18:16;6.50;;;2.30;;
82125;SDS011;71668;51.400;6.758;2024-01-15T12:20:45;4.23;;;1.90;;
82125;SDS011;71668;51.400;6.758;2024-01-15T12:23:16;3.83;;;1.97;;
82125;SDS011;71668;51.400;6.758;2024-01-15T12:25:44;5.10;;;2.10;;
82125;SDS011;71668;51.400;6.758;2024-01-15T12:28:12;6.23;;;2.33;;
82125;SDS011;71668;51.400;6.758;2024-01-15T12:30:39;5.77;;;2.67;;
82125;SDS011;71668;51.400;6.758;2024-01-15T12:33:07;5.57;;;2.53;;
82125;SDS011;71668;51.400;6.758;2024-01-15T12:35:36;3.70;;;2.10;;
82125;SDS011;71668;51.400;6.758;2024-01-15T12:38:03;4.03;;;2.20;;
82125;SDS011;71668;51.400;6.758;2024-01-15T12:40:32;3.93;;;2.37;;
82125;SDS011;71668;51.400;6.758;2024-01-15T12:43:02;4.67;;;2.67;;
82125;SDS011;71668;51.400;6.758;2024-01-15T12:45:29;6.07;;;2.57;;
82125;SDS011;71668;51.400;6.758;2024-01-15T12:47:58;4.27;;;2.53;;
82125;SDS011;71668;51.400;6.758;2024-01-15T12:50:27;5.57;;;2.77;;
82125;SDS011;71668;51.400;6.758;2024-01-15T12:52:53;5.40;;;2.60;;
82125;SDS011;71668;51.400;6.758;2024-01-15T12:55:26;4.50;;;3.00;;
82125;SDS011;71668;51.400;6.758;2024-01-15T12:57:52;4.63;;;2.80;;
82125;SDS011;71668;51.400;6.758;2024-01-15T13:00:22;4.70;;;2.93;;
82125;SDS011;71668;51.400;6.758;2024-01-15T13:02:49;5.17;;;2.70;;
82125;SDS011;71668;51.400;6.758;2024-01-15T13:05:16;4.53;;;2.70;;
82125;SDS011;71668;51.400;6.758;2024-01-15T13:08:13;4.87;;;2.93;;
82125;SDS011;71668;51.400;6.758;2024-01-15T13:10:40;6.10;;;3.03;;
82125;SDS011;71668;51.400;6.758;2024-01-15T13:13:08;4.27;;;2.80;;
82125;SDS011;71668;51.400;6.758;2024-01-15T13:15:38;7.27;;;3.40;;
82125;SDS011;71668;51.400;6.758;2024-01-15T13:18:06;4.27;;;3.23;;
82125;SDS011;71668;51.400;6.758;2024-01-15T13:20:33;10.07;;;4.13;;
82125;SDS011;71668;51.400;6.758;2024-01-15T13:23:00;5.17;;;3.10;;
82125;SDS011;71668;51.400;6.758;2024-01-15T13:25:30;5.63;;;3.80;;
82125;SDS011;71668;51.400;6.758;2024-01-15T13:28:00;5.27;;;3.33;;
82125;SDS011;71668;51.400;6.758;2024-01-15T13:30:31;5.40;;;3.57;;
82125;SDS011;71668;51.400;6.758;2024-01-15T13:32:58;4.70;;;3.40;;
82125;SDS011;71668;51.400;6.758;2024-01-15T13:35:40;6.00;;;3.67;;
82125;SDS011;71668;51.400;6.758;2024-01-15T13:38:07;5.67;;;3.73;;
82125;SDS011;71668;51.400;6.758;2024-01-15T13:40:35;9.43;;;4.10;;
82125;SDS011;71668;51.400;6.758;2024-01-15T13:43:05;6.13;;;3.47;;
82125;SDS011;71668;51.400;6.758;2024-01-15T13:45:34;6.47;;;3.23;;
82125;SDS011;71668;51.400;6.758;2024-01-15T13:48:05;11.13;;;3.50;;
82125;SDS011;71668;51.400;6.758;2024-01-15T13:50:33;6.77;;;2.70;;
82125;SDS011;71668;51.400;6.758;2024-01-15T13:53:04;4.17;;;2.10;;
82125;SDS011;71668;51.400;6.758;2024-01-15T13:55:32;4.37;;;2.03;;
82125;SDS011;71668;51.400;6.758;2024-01-15T13:57:59;3.27;;;1.80;;
82125;SDS011;71668;51.400;6.758;2024-01-15T14:00:26;2.07;;;1.80;;
82125;SDS011;71668;51.400;6.758;2024-01-15T14:02:53;2.50;;;1.40;;
82125;SDS011;71668;51.400;6.758;2024-01-15T14:05:20;2.83;;;1.63;;
82125;SDS011;71668;51.400;6.758;2024-01-15T14:07:47;2.70;;;1.90;;
82125;SDS011;71668;51.400;6.758;2024-01-15T14:10:14;3.17;;;1.63;;
82125;SDS011;71668;51.400;6.758;2024-01-15T14:12:40;3.57;;;1.53;;
82125;SDS011;71668;51.400;6.758;2024-01-15T14:15:08;2.33;;;1.70;;
82125;SDS011;71668;51.400;6.758;2024-01-15T14:17:35;4.27;;;1.90;;
82125;SDS011;71668;51.400;6.758;2024-01-15T14:20:03;3.47;;;1.40;;
82125;SDS011;71668;51.400;6.758;2024-01-15T14:22:32;2.77;;;1.67;;
82125;SDS011;71668;51.400;6.758;2024-01-15T14:24:59;1.77;;;1.43;;
82125;SDS011;71668;51.400;6.758;2024-01-15T14:27:26;4.57;;;1.63;;
82125;SDS011;71668;51.400;6.758;2024-01-15T14:29:53;1.90;;;1.33;;
82125;SDS011;71668;51.400;6.758;2024-01-15T14:32:20;2.53;;;1.50;;
82125;SDS011;71668;51.400;6.758;2024-01-15T14:34:47;3.10;;;1.50;;
82125;SDS011;71668;51.400;6.758;2024-01-15T14:37:14;2.13;;;1.67;;
82125;SDS011;71668;51.400;6.758;2024-01-15T14:39:42;2.60;;;1.80;;
82125;SDS011;71668;51.400;6.758;2024-01-15T14:42:09;2.50;;;1.50;;
82125;SDS011;71668;51.400;6.758;2024-01-15T14:44:37;2.43;;;1.53;;
82125;SDS011;71668;51.400;6.758;2024-01-15T14:47:07;2.57;;;1.90;;
82125;SDS011;71668;51.400;6.758;2024-01-15T14:49:34;3.90;;;1.73;;
82125;SDS011;71668;51.400;6.758;2024-01-15T14:52:01;3.37;;;1.50;;
82125;SDS011;71668;51.400;6.758;2024-01-15T14:54:29;3.13;;;1.90;;
82125;SDS011;71668;51.400;6.758;2024-01-15T14:56:56;2.37;;;1.80;;
82125;SDS011;71668;51.400;6.758;2024-01-15T14:59:23;2.93;;;1.73;;
82125;SDS011;71668;51.400;6.758;2024-01-15T15:01:51;2.30;;;1.80;;
82125;SDS011;71668;51.400;6.758;2024-01-15T15:04:18;3.80;;;1.73;;
82125;SDS011;71668;51.400;6.758;2024-01-15T15:06:45;3.63;;;2.27;;
82125;SDS011;71668;51.400;6.758;2024-01-15T15:09:12;4.43;;;2.40;;